Terminal Aerodrome Forecast
Issued by NWS

Home | Current Version | Previous Version | Graphics & Text | Print | Product List | Glossary On
Versions: 1 2 3 4 5 6 7 8 9 10 11 12 13 14 15 16 17 18 19 20 21 22 23 24 25 26 27
000
FTUS42 KMHX 141100
TAFOAJ
TAF
KOAJ 141120Z 1412/1512 36010KT P6SM OVC025
     FM141800 36005KT P6SM BKN035
     FM150600 01002KT 1SM BR OVC010
      AMD LTD TO CLD VIS AND WIND=

USA.gov is the U.S. government's official web portal to all federal, state and local government web resources and services.